sensor_id;sensor_type;location;lat;lon;timestamp;pressure;altitude;pressure_sealevel;temperature
65316;BMP280;51920;53.952;10.292;2023-04-21T00:00:24;101792.47;;;7.80
65316;BMP280;51920;53.952;10.292;2023-04-21T00:02:51;101794.03;;;7.81
65316;BMP280;51920;53.952;10.292;2023-04-21T00:05:18;101799.91;;;7.83
65316;BMP280;51920;53.952;10.292;2023-04-21T00:07:45;101792.28;;;7.85
65316;BMP280;51920;53.952;10.292;2023-04-21T00:10:12;101790.47;;;7.89
65316;BMP280;51920;53.952;10.292;2023-04-21T00:12:38;101793.63;;;7.91
65316;BMP280;51920;53.952;10.292;2023-04-21T00:15:06;101775.97;;;7.81
65316;BMP280;51920;53.952;10.292;2023-04-21T00:17:32;101774.97;;;7.86
65316;BMP280;51920;53.952;10.292;2023-04-21T00:19:59;101776.41;;;7.83
65316;BMP280;51920;53.952;10.292;2023-04-21T00:22:26;101780.81;;;7.88
65316;BMP280;51920;53.952;10.292;2023-04-21T00:24:52;101778.19;;;7.79
65316;BMP280;51920;53.952;10.292;2023-04-21T00:27:19;101782.78;;;7.79
65316;BMP280;51920;53.952;10.292;2023-04-21T00:29:45;101780.16;;;7.70
65316;BMP280;51920;53.952;10.292;2023-04-21T00:32:12;101775.59;;;7.71
65316;BMP280;51920;53.952;10.292;2023-04-21T00:34:39;101769.44;;;7.82
65316;BMP280;51920;53.952;10.292;2023-04-21T00:37:06;101766.59;;;7.79
65316;BMP280;51920;53.952;10.292;2023-04-21T00:39:32;101771.34;;;7.82
65316;BMP280;51920;53.952;10.292;2023-04-21T00:41:59;101770.88;;;7.80
65316;BMP280;51920;53.952;10.292;2023-04-21T00:44:26;101768.84;;;7.77
65316;BMP280;51920;53.952;10.292;2023-04-21T00:46:53;101773.72;;;7.83
65316;BMP280;51920;53.952;10.292;2023-04-21T00:49:21;101771.13;;;7.87
65316;BMP280;51920;53.952;10.292;2023-04-21T00:51:49;101766.91;;;7.77
65316;BMP280;51920;53.952;10.292;2023-04-21T00:54:16;101760.34;;;7.87
65316;BMP280;51920;53.952;10.292;2023-04-21T00:56:43;101756.69;;;7.71
65316;BMP280;51920;53.952;10.292;2023-04-21T00:59:10;101758.88;;;7.56
65316;BMP280;51920;53.952;10.292;2023-04-21T01:01:39;101776.88;;;7.64
65316;BMP280;51920;53.952;10.292;2023-04-21T01:04:07;101765.28;;;7.64
65316;BMP280;51920;53.952;10.292;2023-04-21T01:06:35;101766.06;;;7.64
65316;BMP280;51920;53.952;10.292;2023-04-21T01:09:03;101762.22;;;7.74
65316;BMP280;51920;53.952;10.292;2023-04-21T01:11:35;101755.50;;;7.59
65316;BMP280;51920;53.952;10.292;2023-04-21T01:14:01;101757.44;;;7.59
65316;BMP280;51920;53.952;10.292;2023-04-21T01:16:28;101753.47;;;7.56
65316;BMP280;51920;53.952;10.292;2023-04-21T01:18:55;101756.41;;;7.51
65316;BMP280;51920;53.952;10.292;2023-04-21T01:21:22;101753.94;;;7.58
65316;BMP280;51920;53.952;10.292;2023-04-21T01:23:49;101757.56;;;7.62
65316;BMP280;51920;53.952;10.292;2023-04-21T01:26:17;101752.53;;;7.73
65316;BMP280;51920;53.952;10.292;2023-04-21T01:28:44;101759.84;;;7.73
65316;BMP280;51920;53.952;10.292;2023-04-21T01:31:17;101761.84;;;7.63
65316;BMP280;51920;53.952;10.292;2023-04-21T01:33:44;101751.72;;;7.60
65316;BMP280;51920;53.952;10.292;2023-04-21T01:36:11;101741.78;;;7.52
65316;BMP280;51920;53.952;10.292;2023-04-21T01:38:40;101753.47;;;7.56
65316;BMP280;51920;53.952;10.292;2023-04-21T01:41:07;101737.31;;;7.56
65316;BMP280;51920;53.952;10.292;2023-04-21T01:43:34;101740.06;;;7.47
65316;BMP280;51920;53.952;10.292;2023-04-21T01:46:03;101750.13;;;7.59
65316;BMP280;51920;53.952;10.292;2023-04-21T01:48:30;101749.47;;;7.62
65316;BMP280;51920;53.952;10.292;2023-04-21T01:50:57;101745.47;;;7.68
65316;BMP280;51920;53.952;10.292;2023-04-21T01:53:24;101736.50;;;7.56
65316;BMP280;51920;53.952;10.292;2023-04-21T01:55:52;101735.84;;;7.59
65316;BMP280;51920;53.952;10.292;2023-04-21T01:58:19;101738.00;;;7.65
65316;BMP280;51920;53.952;10.292;2023-04-21T02:00:46;101740.78;;;7.57
65316;BMP280;51920;53.952;10.292;2023-04-21T02:03:13;101737.31;;;7.56
65316;BMP280;51920;53.952;10.292;2023-04-21T02:05:40;101737.38;;;7.47
65316;BMP280;51920;53.952;10.292;2023-04-21T02:08:06;101736.09;;;7.66
65316;BMP280;51920;53.952;10.292;2023-04-21T02:10:33;101735.13;;;7.71
65316;BMP280;51920;53.952;10.292;2023-04-21T02:13:00;101732.94;;;7.64
65316;BMP280;51920;53.952;10.292;2023-04-21T02:15:28;101726.66;;;7.60
65316;BMP280;51920;53.952;10.292;2023-04-21T02:17:54;101738.28;;;7.73
65316;BMP280;51920;53.952;10.292;2023-04-21T02:20:23;101730.28;;;7.76
65316;BMP280;51920;53.952;10.292;2023-04-21T02:22:50;101722.41;;;7.71
65316;BMP280;51920;53.952;10.292;2023-04-21T02:25:17;101734.00;;;7.72
65316;BMP280;51920;53.952;10.292;2023-04-21T02:27:45;101732.66;;;7.78
65316;BMP280;51920;53.952;10.292;2023-04-21T02:30:12;101726.91;;;7.67
65316;BMP280;51920;53.952;10.292;2023-04-21T02:32:40;101731.47;;;7.66
65316;BMP280;51920;53.952;10.292;2023-04-21T02:35:09;101725.69;;;7.77
65316;BMP280;51920;53.952;10.292;2023-04-21T02:37:36;101725.19;;;7.62
65316;BMP280;51920;53.952;10.292;2023-04-21T02:40:03;101719.13;;;7.65
65316;BMP280;51920;53.952;10.292;2023-04-21T02:42:32;101721.78;;;7.74
65316;BMP280;51920;53.952;10.292;2023-04-21T02:45:00;101722.56;;;7.75
65316;BMP280;51920;53.952;10.292;2023-04-21T02:47:27;101720.78;;;7.58
65316;BMP280;51920;53.952;10.292;2023-04-21T02:49:55;101720.06;;;7.48
65316;BMP280;51920;53.952;10.292;2023-04-21T02:52:22;101718.38;;;7.44
65316;BMP280;51920;53.952;10.292;2023-04-21T02:54:50;101716.13;;;7.46
65316;BMP280;51920;53.952;10.292;2023-04-21T02:57:17;101710.88;;;7.50
65316;BMP280;51920;53.952;10.292;2023-04-21T02:59:44;101716.13;;;7.46
65316;BMP280;51920;53.952;10.292;2023-04-21T03:02:11;101711.22;;;7.48
65316;BMP280;51920;53.952;10.292;2023-04-21T03:04:38;101712.56;;;7.54
65316;BMP280;51920;53.952;10.292;2023-04-21T03:07:04;101713.63;;;7.41
65316;BMP280;51920;53.952;10.292;2023-04-21T03:09:31;101712.97;;;7.44
65316;BMP280;51920;53.952;10.292;2023-04-21T03:11:58;101703.53;;;7.38
65316;BMP280;51920;53.952;10.292;2023-04-21T03:14:25;101701.56;;;7.26
65316;BMP280;51920;53.952;10.292;2023-04-21T03:16:51;101699.38;;;7.19
65316;BMP280;51920;53.952;10.292;2023-04-21T03:19:18;101707.47;;;7.19
65316;BMP280;51920;53.952;10.292;2023-04-21T03:21:45;101703.25;;;7.31
65316;BMP280;51920;53.952;10.292;2023-04-21T03:24:12;101701.16;;;7.36
65316;BMP280;51920;53.952;10.292;2023-04-21T03:26:39;101698.84;;;7.47
65316;BMP280;51920;53.952;10.292;2023-04-21T03:29:08;101701.28;;;7.40
65316;BMP280;51920;53.952;10.292;2023-04-21T03:31:35;101703.63;;;7.41
65316;BMP280;51920;53.952;10.292;2023-04-21T03:34:01;101697.84;;;7.31
65316;BMP280;51920;53.952;10.292;2023-04-21T03:36:28;101701.44;;;7.22
65316;BMP280;51920;53.952;10.292;2023-04-21T03:38:55;101700.09;;;7.28
65316;BMP280;51920;53.952;10.292;2023-04-21T03:41:24;101701.25;;;7.19
65316;BMP280;51920;53.952;10.292;2023-04-21T03:43:51;101696.56;;;7.16
65316;BMP280;51920;53.952;10.292;2023-04-21T03:46:19;101691.28;;;7.19
65316;BMP280;51920;53.952;10.292;2023-04-21T03:48:46;101697.22;;;7.13
65316;BMP280;51920;53.952;10.292;2023-04-21T03:51:13;101698.00;;;7.13
65316;BMP280;51920;53.952;10.292;2023-04-21T03:53:40;101693.91;;;7.07
65316;BMP280;51920;53.952;10.292;2023-04-21T03:56:07;101693.06;;;7.15
65316;BMP280;51920;53.952;10.292;2023-04-21T03:58:34;101691.97;;;7.16
65316;BMP280;51920;53.952;10.292;2023-04-21T04:01:04;101691.97;;;7.16
65316;BMP280;51920;53.952;10.292;2023-04-21T04:03:31;101693.28;;;7.10
65316;BMP280;51920;53.952;10.292;2023-04-21T04:05:57;101689.69;;;7.18
65316;BMP280;51920;53.952;10.292;2023-04-21T04:08:24;101693.13;;;7.27
65316;BMP280;51920;53.952;10.292;2023-04-21T04:10:51;101694.91;;;7.23
65316;BMP280;51920;53.952;10.292;2023-04-21T04:13:17;101691.88;;;7.25
65316;BMP280;51920;53.952;10.292;2023-04-21T04:15:44;101684.84;;;7.33
65316;BMP280;51920;53.952;10.292;2023-04-21T04:18:11;101686.25;;;7.39
65316;BMP280;51920;53.952;10.292;2023-04-21T04:20:38;101684.06;;;7.32
65316;BMP280;51920;53.952;10.292;2023-04-21T04:23:04;101683.28;;;7.32
65316;BMP280;51920;53.952;10.292;2023-04-21T04:25:31;101683.28;;;7.32
65316;BMP280;51920;53.952;10.292;2023-04-21T04:27:58;101686.56;;;7.37
65316;BMP280;51920;53.952;10.292;2023-04-21T04:30:26;101685.97;;;7.32
65316;BMP280;51920;53.952;10.292;2023-04-21T04:32:54;101678.53;;;7.28
65316;BMP280;51920;53.952;10.292;2023-04-21T04:35:23;101687.59;;;7.45
65316;BMP280;51920;53.952;10.292;2023-04-21T04:37:50;101682.00;;;7.50
65316;BMP280;51920;53.952;10.292;2023-04-21T04:40:17;101686.28;;;7.51
65316;BMP280;51920;53.952;10.292;2023-04-21T04:42:44;101680.19;;;7.54
65316;BMP280;51920;53.952;10.292;2023-04-21T04:45:14;101682.72;;;7.59
65316;BMP280;51920;53.952;10.292;2023-04-21T04:47:42;101681.34;;;7.53
65316;BMP280;51920;53.952;10.292;2023-04-21T04:50:10;101687.00;;;7.60
65316;BMP280;51920;53.952;10.292;2023-04-21T04:52:37;101672.59;;;7.56
65316;BMP280;51920;53.952;10.292;2023-04-21T04:55:05;101689.72;;;7.73
65316;BMP280;51920;53.952;10.292;2023-04-21T04:57:33;101690.84;;;7.72
65316;BMP280;51920;53.952;10.292;2023-04-21T05:00:00;101694.91;;;7.78
65316;BMP280;51920;53.952;10.292;2023-04-21T05:02:26;101693.25;;;7.98
65316;BMP280;51920;53.952;10.292;2023-04-21T05:04:53;101684.84;;;7.99
65316;BMP280;51920;53.952;10.292;2023-04-21T05:07:20;101685.19;;;8.10
65316;BMP280;51920;53.952;10.292;2023-04-21T05:09:47;101687.09;;;8.09
65316;BMP280;51920;53.952;10.292;2023-04-21T05:12:14;101690.25;;;8.12
65316;BMP280;51920;53.952;10.292;2023-04-21T05:14:41;101692.75;;;8.29
65316;BMP280;51920;53.952;10.292;2023-04-21T05:17:08;101691.28;;;8.32
65316;BMP280;51920;53.952;10.292;2023-04-21T05:19:35;101682.38;;;8.31
65316;BMP280;51920;53.952;10.292;2023-04-21T05:22:03;101679.50;;;8.48
65316;BMP280;51920;53.952;10.292;2023-04-21T05:24:32;101681.06;;;8.49
65316;BMP280;51920;53.952;10.292;2023-04-21T05:26:59;101684.88;;;8.61
65316;BMP280;51920;53.952;10.292;2023-04-21T05:29:28;101685.63;;;8.74
65316;BMP280;51920;53.952;10.292;2023-04-21T05:31:55;101687.44;;;8.69
65316;BMP280;51920;53.952;10.292;2023-04-21T05:34:22;101694.72;;;8.94
65316;BMP280;51920;53.952;10.292;2023-04-21T05:36:49;101690.19;;;8.98
65316;BMP280;51920;53.952;10.292;2023-04-21T05:39:17;101702.00;;;9.18
65316;BMP280;51920;53.952;10.292;2023-04-21T05:41:44;101691.88;;;9.30
65316;BMP280;51920;53.952;10.292;2023-04-21T05:44:11;101697.19;;;9.39
65316;BMP280;51920;53.952;10.292;2023-04-21T05:46:39;101692.19;;;9.41
65316;BMP280;51920;53.952;10.292;2023-04-21T05:49:05;101690.78;;;9.76
65316;BMP280;51920;53.952;10.292;2023-04-21T05:51:32;101695.59;;;9.82
65316;BMP280;51920;53.952;10.292;2023-04-21T05:53:59;101689.31;;;9.94
65316;BMP280;51920;53.952;10.292;2023-04-21T05:56:26;101693.22;;;9.97
65316;BMP280;51920;53.952;10.292;2023-04-21T05:58:53;101695.84;;;10.25
65316;BMP280;51920;53.952;10.292;2023-04-21T06:01:20;101695.47;;;10.42
65316;BMP280;51920;53.952;10.292;2023-04-21T06:03:47;101701.47;;;10.51
65316;BMP280;51920;53.952;10.292;2023-04-21T06:06:16;101701.69;;;10.78
65316;BMP280;51920;53.952;10.292;2023-04-21T06:08:43;101702.19;;;11.03
65316;BMP280;51920;53.952;10.292;2023-04-21T06:11:10;101697.38;;;10.57
65316;BMP280;51920;53.952;10.292;2023-04-21T06:13:37;101700.47;;;10.75
65316;BMP280;51920;53.952;10.292;2023-04-21T06:16:04;101688.25;;;11.05
65316;BMP280;51920;53.952;10.292;2023-04-21T06:18:31;101691.47;;;11.10
65316;BMP280;51920;53.952;10.292;2023-04-21T06:20:58;101685.69;;;11.12
65316;BMP280;51920;53.952;10.292;2023-04-21T06:23:25;101690.56;;;11.65
65316;BMP280;51920;53.952;10.292;2023-04-21T06:26:05;101690.47;;;11.84
65316;BMP280;51920;53.952;10.292;2023-04-21T06:28:33;101683.19;;;11.88
65316;BMP280;51920;53.952;10.292;2023-04-21T06:31:01;101677.69;;;12.11
65316;BMP280;51920;53.952;10.292;2023-04-21T06:33:29;101668.91;;;12.48
65316;BMP280;51920;53.952;10.292;2023-04-21T06:35:55;101683.66;;;12.20
65316;BMP280;51920;53.952;10.292;2023-04-21T06:38:22;101675.69;;;12.31
65316;BMP280;51920;53.952;10.292;2023-04-21T06:40:50;101664.25;;;12.49
65316;BMP280;51920;53.952;10.292;2023-04-21T06:43:16;101668.09;;;12.44
65316;BMP280;51920;53.952;10.292;2023-04-21T06:45:43;101668.41;;;12.39
65316;BMP280;51920;53.952;10.292;2023-04-21T06:48:10;101671.84;;;12.36
65316;BMP280;51920;53.952;10.292;2023-04-21T06:50:36;101667.22;;;12.40
65316;BMP280;51920;53.952;10.292;2023-04-21T06:53:03;101693.34;;;12.78
65316;BMP280;51920;53.952;10.292;2023-04-21T06:55:30;101666.69;;;12.57
65316;BMP280;51920;53.952;10.292;2023-04-21T06:57:57;101667.94;;;12.33
65316;BMP280;51920;53.952;10.292;2023-04-21T07:00:24;101671.59;;;12.78
65316;BMP280;51920;53.952;10.292;2023-04-21T07:02:50;101674.78;;;12.84
65316;BMP280;51920;53.952;10.292;2023-04-21T07:05:17;101679.16;;;12.92
65316;BMP280;51920;53.952;10.292;2023-04-21T07:07:44;101680.84;;;13.04
65316;BMP280;51920;53.952;10.292;2023-04-21T07:10:11;101671.84;;;13.00
65316;BMP280;51920;53.952;10.292;2023-04-21T07:12:38;101671.22;;;13.58
65316;BMP280;51920;53.952;10.292;2023-04-21T07:15:05;101677.97;;;13.71
65316;BMP280;51920;53.952;10.292;2023-04-21T07:17:32;101666.34;;;12.93
65316;BMP280;51920;53.952;10.292;2023-04-21T07:19:59;101674.78;;;13.62
65316;BMP280;51920;53.952;10.292;2023-04-21T07:22:25;101666.72;;;13.32
65316;BMP280;51920;53.952;10.292;2023-04-21T07:24:52;101669.59;;;13.98
65316;BMP280;51920;53.952;10.292;2023-04-21T07:27:19;101663.06;;;13.58
65316;BMP280;51920;53.952;10.292;2023-04-21T07:29:46;101669.69;;;14.16
65316;BMP280;51920;53.952;10.292;2023-04-21T07:32:13;101674.69;;;13.55
65316;BMP280;51920;53.952;10.292;2023-04-21T07:34:39;101669.38;;;13.66
65316;BMP280;51920;53.952;10.292;2023-04-21T07:37:06;101666.03;;;13.42
65316;BMP280;51920;53.952;10.292;2023-04-21T07:39:33;101671.94;;;14.00
65316;BMP280;51920;53.952;10.292;2023-04-21T07:41:59;101670.00;;;13.48
65316;BMP280;51920;53.952;10.292;2023-04-21T07:44:26;101667.25;;;13.96
65316;BMP280;51920;53.952;10.292;2023-04-21T07:46:54;101666.41;;;13.89
65316;BMP280;51920;53.952;10.292;2023-04-21T07:49:21;101667.44;;;14.29
65316;BMP280;51920;53.952;10.292;2023-04-21T07:51:48;101671.22;;;14.10
65316;BMP280;51920;53.952;10.292;2023-04-21T07:54:15;101678.78;;;14.42
65316;BMP280;51920;53.952;10.292;2023-04-21T07:56:42;101670.56;;;14.34
65316;BMP280;51920;53.952;10.292;2023-04-21T07:59:08;101658.09;;;14.37
65316;BMP280;51920;53.952;10.292;2023-04-21T08:01:35;101655.84;;;14.53
65316;BMP280;51920;53.952;10.292;2023-04-21T08:04:02;101665.91;;;14.38
65316;BMP280;51920;53.952;10.292;2023-04-21T08:06:29;101662.53;;;14.70
65316;BMP280;51920;53.952;10.292;2023-04-21T08:08:55;101669.88;;;14.59
65316;BMP280;51920;53.952;10.292;2023-04-21T08:11:22;101659.72;;;14.56
65316;BMP280;51920;53.952;10.292;2023-04-21T08:13:49;101672.09;;;14.28
65316;BMP280;51920;53.952;10.292;2023-04-21T08:16:17;101660.94;;;14.55
65316;BMP280;51920;53.952;10.292;2023-04-21T08:18:44;101666.50;;;15.12
65316;BMP280;51920;53.952;10.292;2023-04-21T08:21:10;101666.13;;;15.35
65316;BMP280;51920;53.952;10.292;2023-04-21T08:23:37;101658.25;;;15.95
65316;BMP280;51920;53.952;10.292;2023-04-21T08:26:04;101672.38;;;15.61
65316;BMP280;51920;53.952;10.292;2023-04-21T08:28:31;101664.09;;;16.00
65316;BMP280;51920;53.952;10.292;2023-04-21T08:30:58;101661.84;;;15.70
65316;BMP280;51920;53.952;10.292;2023-04-21T08:33:28;101650.53;;;15.61
65316;BMP280;51920;53.952;10.292;2023-04-21T08:35:55;101648.94;;;15.67
65316;BMP280;51920;53.952;10.292;2023-04-21T08:38:28;101648.50;;;15.94
65316;BMP280;51920;53.952;10.292;2023-04-21T08:41:00;101648.50;;;15.97
65316;BMP280;51920;53.952;10.292;2023-04-21T08:43:29;101651.28;;;15.61
65316;BMP280;51920;53.952;10.292;2023-04-21T08:45:55;101654.41;;;15.67
65316;BMP280;51920;53.952;10.292;2023-04-21T08:48:23;101650.50;;;15.79
65316;BMP280;51920;53.952;10.292;2023-04-21T08:50:51;101645.78;;;15.90
65316;BMP280;51920;53.952;10.292;2023-04-21T08:53:19;101649.25;;;15.94
65316;BMP280;51920;53.952;10.292;2023-04-21T08:55:50;101648.97;;;15.35
65316;BMP280;51920;53.952;10.292;2023-04-21T08:58:22;101650.09;;;16.72
65316;BMP280;51920;53.952;10.292;2023-04-21T09:00:49;101655.50;;;16.05
65316;BMP280;51920;53.952;10.292;2023-04-21T09:03:23;101657.09;;;15.78
65316;BMP280;51920;53.952;10.292;2023-04-21T09:06:02;101644.50;;;16.93
65316;BMP280;51920;53.952;10.292;2023-04-21T09:08:31;101647.88;;;17.53
65316;BMP280;51920;53.952;10.292;2023-04-21T09:10:59;101660.34;;;17.58
65316;BMP280;51920;53.952;10.292;2023-04-21T09:13:31;101640.84;;;17.52
65316;BMP280;51920;53.952;10.292;2023-04-21T09:15:59;101659.94;;;16.58
65316;BMP280;51920;53.952;10.292;2023-04-21T09:18:28;101653.25;;;16.74
65316;BMP280;51920;53.952;10.292;2023-04-21T09:23:40;101648.31;;;16.47
65316;BMP280;51920;53.952;10.292;2023-04-21T09:26:08;101630.91;;;17.28
65316;BMP280;51920;53.952;10.292;2023-04-21T09:28:34;101626.09;;;17.77
65316;BMP280;51920;53.952;10.292;2023-04-21T09:31:01;101645.38;;;17.69
65316;BMP280;51920;53.952;10.292;2023-04-21T09:33:34;101647.50;;;17.89
65316;BMP280;51920;53.952;10.292;2023-04-21T09:36:04;101646.25;;;18.28
65316;BMP280;51920;53.952;10.292;2023-04-21T09:38:31;101621.66;;;17.86
65316;BMP280;51920;53.952;10.292;2023-04-21T09:40:58;101650.47;;;18.02
65316;BMP280;51920;53.952;10.292;2023-04-21T09:43:25;101641.00;;;18.06
65316;BMP280;51920;53.952;10.292;2023-04-21T09:45:53;101636.38;;;18.30
65316;BMP280;51920;53.952;10.292;2023-04-21T09:48:20;101637.88;;;18.89
65316;BMP280;51920;53.952;10.292;2023-04-21T09:50:48;101633.13;;;18.66
65316;BMP280;51920;53.952;10.292;2023-04-21T09:53:20;101635.28;;;18.78
65316;BMP280;51920;53.952;10.292;2023-04-21T09:55:51;101631.22;;;18.09
65316;BMP280;51920;53.952;10.292;2023-04-21T09:58:21;101626.44;;;18.44
65316;BMP280;51920;53.952;10.292;2023-04-21T10:00:50;101628.06;;;18.38
65316;BMP280;51920;53.952;10.292;2023-04-21T10:03:19;101623.03;;;18.05
65316;BMP280;51920;53.952;10.292;2023-04-21T10:05:47;101625.81;;;17.71
65316;BMP280;51920;53.952;10.292;2023-04-21T10:08:14;101618.78;;;17.66
65316;BMP280;51920;53.952;10.292;2023-04-21T10:10:44;101611.03;;;17.92
65316;BMP280;51920;53.952;10.292;2023-04-21T10:13:14;101615.44;;;17.07
65316;BMP280;51920;53.952;10.292;2023-04-21T10:15:43;101604.91;;;17.01
65316;BMP280;51920;53.952;10.292;2023-04-21T10:26:33;101609.25;;;17.78
65316;BMP280;51920;53.952;10.292;2023-04-21T10:28:58;101607.03;;;16.83
65316;BMP280;51920;53.952;10.292;2023-04-21T10:31:38;101593.81;;;16.74
65316;BMP280;51920;53.952;10.292;2023-04-21T10:34:16;101593.38;;;17.62
65316;BMP280;51920;53.952;10.292;2023-04-21T10:39:24;101594.88;;;17.67
65316;BMP280;51920;53.952;10.292;2023-04-21T10:41:54;101592.75;;;17.82
65316;BMP280;51920;53.952;10.292;2023-04-21T10:44:21;101594.75;;;17.78
65316;BMP280;51920;53.952;10.292;2023-04-21T10:49:23;101588.25;;;18.26
65316;BMP280;51920;53.952;10.292;2023-04-21T10:54:23;101586.31;;;17.96
65316;BMP280;51920;53.952;10.292;2023-04-21T10:56:54;101583.69;;;18.19
65316;BMP280;51920;53.952;10.292;2023-04-21T10:59:24;101585.84;;;18.31
65316;BMP280;51920;53.952;10.292;2023-04-21T11:01:51;101566.75;;;17.94
65316;BMP280;51920;53.952;10.292;2023-04-21T11:04:19;101569.03;;;17.68
65316;BMP280;51920;53.952;10.292;2023-04-21T11:07:10;101558.84;;;17.68
65316;BMP280;51920;53.952;10.292;2023-04-21T11:09:38;101568.28;;;17.98
65316;BMP280;51920;53.952;10.292;2023-04-21T11:12:15;101560.38;;;17.73
65316;BMP280;51920;53.952;10.292;2023-04-21T11:14:46;101561.13;;;18.04
65316;BMP280;51920;53.952;10.292;2023-04-21T11:17:17;101554.63;;;18.22
65316;BMP280;51920;53.952;10.292;2023-04-21T11:19:51;101546.50;;;18.14
65316;BMP280;51920;53.952;10.292;2023-04-21T11:22:28;101525.63;;;18.24
65316;BMP280;51920;53.952;10.292;2023-04-21T11:24:58;101553.78;;;18.52
65316;BMP280;51920;53.952;10.292;2023-04-21T11:27:26;101537.88;;;18.40
65316;BMP280;51920;53.952;10.292;2023-04-21T11:30:02;101547.16;;;18.49
65316;BMP280;51920;53.952;10.292;2023-04-21T11:32:29;101542.44;;;18.50
65316;BMP280;51920;53.952;10.292;2023-04-21T11:34:56;101533.72;;;18.55
65316;BMP280;51920;53.952;10.292;2023-04-21T11:37:24;101550.78;;;18.43
65316;BMP280;51920;53.952;10.292;2023-04-21T11:39:58;101547.84;;;17.72
65316;BMP280;51920;53.952;10.292;2023-04-21T11:42:26;101536.41;;;18.08
65316;BMP280;51920;53.952;10.292;2023-04-21T11:44:54;101529.97;;;17.91
65316;BMP280;51920;53.952;10.292;2023-04-21T11:47:23;101521.41;;;17.89
65316;BMP280;51920;53.952;10.292;2023-04-21T11:52:27;101520.94;;;18.21
65316;BMP280;51920;53.952;10.292;2023-04-21T11:55:14;101525.19;;;17.99
65316;BMP280;51920;53.952;10.292;2023-04-21T11:57:43;101522.47;;;17.68
65316;BMP280;51920;53.952;10.292;2023-04-21T12:00:11;101518.59;;;17.62
65316;BMP280;51920;53.952;10.292;2023-04-21T12:02:41;101517.34;;;18.01
65316;BMP280;51920;53.952;10.292;2023-04-21T12:05:10;101519.91;;;17.84
65316;BMP280;51920;53.952;10.292;2023-04-21T12:07:40;101512.03;;;17.86
65316;BMP280;51920;53.952;10.292;2023-04-21T12:10:18;101501.78;;;17.90
65316;BMP280;51920;53.952;10.292;2023-04-21T12:12:45;101503.50;;;17.81
65316;BMP280;51920;53.952;10.292;2023-04-21T12:15:21;101496.16;;;17.74
65316;BMP280;51920;53.952;10.292;2023-04-21T12:17:50;101489.97;;;17.66
65316;BMP280;51920;53.952;10.292;2023-04-21T12:20:22;101484.94;;;17.61
65316;BMP280;51920;53.952;10.292;2023-04-21T12:22:49;101489.63;;;17.64
65316;BMP280;51920;53.952;10.292;2023-04-21T12:25:16;101482.69;;;17.56
65316;BMP280;51920;53.952;10.292;2023-04-21T12:27:52;101497.84;;;17.64
65316;BMP280;51920;53.952;10.292;2023-04-21T12:30:20;101480.75;;;17.84
65316;BMP280;51920;53.952;10.292;2023-04-21T12:32:46;101483.63;;;17.73
65316;BMP280;51920;53.952;10.292;2023-04-21T12:35:14;101482.59;;;17.63
65316;BMP280;51920;53.952;10.292;2023-04-21T12:37:43;101470.91;;;17.59
65316;BMP280;51920;53.952;10.292;2023-04-21T12:40:10;101477.97;;;17.57
65316;BMP280;51920;53.952;10.292;2023-04-21T12:42:37;101474.03;;;17.58
65316;BMP280;51920;53.952;10.292;2023-04-21T12:45:04;101466.91;;;17.64
65316;BMP280;51920;53.952;10.292;2023-04-21T12:47:31;101460.81;;;17.53
65316;BMP280;51920;53.952;10.292;2023-04-21T12:49:58;101464.38;;;17.80
65316;BMP280;51920;53.952;10.292;2023-04-21T12:52:25;101434.31;;;17.73
65316;BMP280;51920;53.952;10.292;2023-04-21T12:54:52;101455.44;;;17.45
65316;BMP280;51920;53.952;10.292;2023-04-21T12:57:19;101455.47;;;17.42
65316;BMP280;51920;53.952;10.292;2023-04-21T12:59:46;101454.09;;;17.57
65316;BMP280;51920;53.952;10.292;2023-04-21T13:02:13;101452.03;;;17.65
65316;BMP280;51920;53.952;10.292;2023-04-21T13:04:40;101424.28;;;17.63
65316;BMP280;51920;53.952;10.292;2023-04-21T13:07:07;101436.06;;;17.60
65316;BMP280;51920;53.952;10.292;2023-04-21T13:09:34;101445.72;;;17.68
65316;BMP280;51920;53.952;10.292;2023-04-21T13:12:01;101415.44;;;17.52
65316;BMP280;51920;53.952;10.292;2023-04-21T13:14:28;101433.22;;;17.67
65316;BMP280;51920;53.952;10.292;2023-04-21T13:16:55;101440.50;;;17.77
65316;BMP280;51920;53.952;10.292;2023-04-21T13:19:22;101433.09;;;17.47
65316;BMP280;51920;53.952;10.292;2023-04-21T13:21:49;101424.84;;;17.51
65316;BMP280;51920;53.952;10.292;2023-04-21T13:24:16;101432.19;;;17.57
65316;BMP280;51920;53.952;10.292;2023-04-21T13:26:43;101428.69;;;17.53
65316;BMP280;51920;53.952;10.292;2023-04-21T13:29:10;101424.41;;;17.52
65316;BMP280;51920;53.952;10.292;2023-04-21T13:31:37;101415.75;;;17.57
65316;BMP280;51920;53.952;10.292;2023-04-21T13:34:04;101415.59;;;17.68
65316;BMP280;51920;53.952;10.292;2023-04-21T13:36:30;101411.28;;;17.67
65316;BMP280;51920;53.952;10.292;2023-04-21T13:38:58;101392.47;;;17.69
65316;BMP280;51920;53.952;10.292;2023-04-21T13:41:26;101408.81;;;17.76
65316;BMP280;51920;53.952;10.292;2023-04-21T13:43:52;101398.34;;;17.71
65316;BMP280;51920;53.952;10.292;2023-04-21T13:46:19;101399.41;;;17.77
65316;BMP280;51920;53.952;10.292;2023-04-21T13:48:46;101397.94;;;17.69
65316;BMP280;51920;53.952;10.292;2023-04-21T13:51:13;101392.75;;;17.78
65316;BMP280;51920;53.952;10.292;2023-04-21T13:53:40;101391.19;;;17.77
65316;BMP280;51920;53.952;10.292;2023-04-21T13:56:07;101385.91;;;17.90
65316;BMP280;51920;53.952;10.292;2023-04-21T13:58:35;101374.88;;;17.94
65316;BMP280;51920;53.952;10.292;2023-04-21T14:01:02;101389.56;;;17.80
65316;BMP280;51920;53.952;10.292;2023-04-21T14:03:29;101378.84;;;17.65
65316;BMP280;51920;53.952;10.292;2023-04-21T14:05:56;101368.28;;;17.64
65316;BMP280;51920;53.952;10.292;2023-04-21T14:08:23;101356.47;;;17.67
65316;BMP280;51920;53.952;10.292;2023-04-21T14:10:50;101380.81;;;17.65
65316;BMP280;51920;53.952;10.292;2023-04-21T14:13:16;101360.84;;;17.64